Time;durP1;ratioP1;P1;durP2;ratioP2;P2;SDS_P1;SDS_P2;PMS_P1;PMS_P2;Temp;Humidity;BMP_temperature;BMP_pressure;BME280_temperature;BME280_humidity;BME280_pressure;Samples;Min_cycle;Max_cycle;Signal;HPM_P1;HPM_P2
2021/06/29 04:01:34;;;;;;;7.27;6.57;;;18.20;96.30;;;;;;5490376;23;20494;-78
2021/06/29 04:04:00;;;;;;;5.87;5.17;;;18.20;96.30;;;;;;5053140;28;20402;-78
2021/06/29 04:06:31;;;;;;;11.47;5.10;;;18.20;96.30;;;;;;5034871;28;20410;-78
2021/06/29 04:08:58;;;;;;;6.70;5.77;;;18.30;96.30;;;;;;5049044;28;20486;-81
2021/06/29 04:11:25;;;;;;;6.33;5.33;;;18.30;96.30;;;;;;5050952;28;20449;-78
2021/06/29 04:13:51;;;;;;;5.30;4.80;;;18.30;96.30;;;;;;5053630;28;20418;-79
2021/06/29 04:16:18;;;;;;;5.57;4.80;;;18.30;96.30;;;;;;5053070;28;20417;-79
2021/06/29 04:18:43;;;;;;;6.03;5.30;;;18.20;96.30;;;;;;5035068;28;20482;-79
2021/06/29 04:21:09;;;;;;;7.60;6.73;;;18.20;96.30;;;;;;5053203;28;20991;-78
2021/06/29 04:23:34;;;;;;;7.47;6.83;;;18.20;96.30;;;;;;5052938;28;20250;-80
2021/06/29 04:26:01;;;;;;;7.60;6.77;;;18.20;96.30;;;;;;5052436;28;20182;-77
2021/06/29 04:28:26;;;;;;;6.10;5.60;;;18.10;96.30;;;;;;5034355;28;20270;-78
2021/06/29 04:30:52;;;;;;;6.70;6.10;;;18.00;96.30;;;;;;5037715;28;20513;-78
2021/06/29 04:33:18;;;;;;;6.40;5.80;;;18.00;96.30;;;;;;5052286;28;20171;-77
2021/06/29 04:35:44;;;;;;;6.27;5.60;;;17.90;96.30;;;;;;5040994;28;20410;-77
2021/06/29 04:38:09;;;;;;;9.37;5.70;;;17.90;96.30;;;;;;5031668;28;20591;-78
2021/06/29 04:40:35;;;;;;;8.10;5.67;;;17.90;96.30;;;;;;5037737;28;20195;-79
2021/06/29 04:43:00;;;;;;;7.40;6.00;;;17.90;96.30;;;;;;5052241;28;20275;-77
2021/06/29 04:45:27;;;;;;;9.03;5.47;;;17.90;96.30;;;;;;5034312;28;20562;-78
2021/06/29 04:47:55;;;;;;;7.50;6.10;;;17.90;96.30;;;;;;5051609;28;20213;-77
2021/06/29 04:50:21;;;;;;;7.77;5.97;;;17.90;96.30;;;;;;5051903;28;20398;-77
2021/06/29 04:52:48;;;;;;;5.77;5.27;;;17.90;96.30;;;;;;5051858;28;20417;-78
2021/06/29 04:55:14;;;;;;;7.67;6.60;;;17.80;96.30;;;;;;5052087;28;20795;-79
2021/06/29 04:57:40;;;;;;;6.57;5.93;;;17.80;96.30;;;;;;5051307;28;20417;-78
2021/06/29 05:00:09;;;;;;;7.00;5.60;;;17.80;96.30;;;;;;5051855;28;20410;-78
2021/06/29 05:02:36;;;;;;;6.20;5.17;;;17.90;96.30;;;;;;5052010;28;20175;-77
2021/06/29 05:05:03;;;;;;;4.90;4.30;;;17.90;96.30;;;;;;5051889;28;20409;-78
2021/06/29 05:07:28;;;;;;;7.93;4.00;;;17.90;96.30;;;;;;5034254;28;20407;-78
2021/06/29 05:09:54;;;;;;;3.83;3.30;;;17.90;96.30;;;;;;5031917;28;20415;-79
2021/06/29 05:12:19;;;;;;;4.33;3.30;;;18.00;96.30;;;;;;5035695;28;20546;-78
2021/06/29 05:14:45;;;;;;;3.57;3.27;;;18.00;96.30;;;;;;5035155;28;20268;-78
2021/06/29 05:17:10;;;;;;;3.67;3.40;;;18.00;96.30;;;;;;5035512;28;20182;-79
2021/06/29 05:19:36;;;;;;;3.27;2.97;;;18.10;96.30;;;;;;5036033;28;20246;-78
2021/06/29 05:22:02;;;;;;;4.07;3.40;;;18.10;96.30;;;;;;5041160;28;20195;-79
2021/06/29 05:24:27;;;;;;;3.13;2.93;;;18.10;96.30;;;;;;5026466;28;20234;-78
2021/06/29 05:26:53;;;;;;;4.07;3.77;;;18.10;96.30;;;;;;5042676;28;20246;-78
2021/06/29 05:29:18;;;;;;;5.70;3.07;;;18.20;96.30;;;;;;5055568;28;20183;-78
2021/06/29 05:31:44;;;;;;;4.40;2.97;;;18.30;96.30;;;;;;5037548;28;20207;-78
2021/06/29 05:34:10;;;;;;;4.70;3.07;;;18.30;96.30;;;;;;5036063;28;20502;-78
2021/06/29 05:36:36;;;;;;;6.17;3.17;;;18.40;96.30;;;;;;5035379;28;20507;-78
2021/06/29 05:39:03;;;;;;;5.10;2.90;;;18.50;96.30;;;;;;5041209;28;20191;-79
2021/06/29 05:41:28;;;;;;;2.97;2.77;;;18.70;96.30;;;;;;5017963;28;20199;-78
2021/06/29 05:43:54;;;;;;;6.83;2.60;;;18.80;96.30;;;;;;5035588;28;20484;-78
2021/06/29 05:46:20;;;;;;;3.10;2.20;;;19.00;96.30;;;;;;5035033;28;20251;-78
2021/06/29 05:48:45;;;;;;;3.20;2.50;;;19.10;96.30;;;;;;5035195;28;20226;-78
2021/06/29 05:51:11;;;;;;;3.50;2.60;;;19.30;96.30;;;;;;5041026;28;20195;-78
2021/06/29 05:53:36;;;;;;;4.37;2.50;;;19.40;96.30;;;;;;5043325;28;20192;-78
2021/06/29 05:56:02;;;;;;;3.87;2.33;;;19.50;96.30;;;;;;5042783;28;20179;-78
2021/06/29 05:58:27;;;;;;;4.90;2.40;;;19.70;96.30;;;;;;5035949;28;20204;-77
2021/06/29 06:00:53;;;;;;;3.03;2.73;;;19.80;96.30;;;;;;5045600;28;20701;-79
2021/06/29 06:03:20;;;;;;;2.67;2.47;;;20.20;96.30;;;;;;5035696;28;20180;-79
2021/06/29 06:05:46;;;;;;;2.90;2.00;;;20.50;96.30;;;;;;5035596;28;20644;-79
2021/06/29 06:08:13;;;;;;;3.03;2.50;;;21.10;96.30;;;;;;5048173;28;20496;-79
2021/06/29 06:10:38;;;;;;;5.00;2.60;;;21.60;96.30;;;;;;5043272;28;20750;-79
2021/06/29 06:13:04;;;;;;;3.20;2.40;;;22.50;96.30;;;;;;5050212;28;20512;-79
2021/06/29 06:15:29;;;;;;;1.87;1.77;;;23.30;96.30;;;;;;5035474;28;20214;-79
2021/06/29 06:17:55;;;;;;;3.93;2.40;;;24.00;96.30;;;;;;5035535;28;20183;-78
2021/06/29 06:20:20;;;;;;;2.23;2.03;;;24.60;96.30;;;;;;5036429;28;20172;-79
2021/06/29 06:22:46;;;;;;;2.70;1.90;;;24.90;95.70;;;;;;5036467;28;20199;-78
2021/06/29 06:25:12;;;;;;;3.57;2.30;;;25.70;90.80;;;;;;5036287;28;20613;-79
2021/06/29 06:27:38;;;;;;;7.00;2.43;;;25.80;93.10;;;;;;5036350;28;20913;-79
2021/06/29 06:30:06;;;;;;;2.07;1.87;;;26.10;90.20;;;;;;5036462;28;20175;-79
2021/06/29 06:32:32;;;;;;;3.20;2.03;;;25.50;90.40;;;;;;5035627;28;20426;-79
2021/06/29 06:34:57;;;;;;;2.47;1.80;;;24.90;91.80;;;;;;5035976;28;20436;-79
2021/06/29 06:37:23;;;;;;;5.73;2.20;;;24.50;93.10;;;;;;5034382;28;20183;-79
2021/06/29 06:39:48;;;;;;;4.10;2.23;;;23.90;96.30;;;;;;5042479;28;20234;-79
2021/06/29 06:42:15;;;;;;;5.87;2.03;;;23.80;96.30;;;;;;5055152;28;20248;-79
2021/06/29 06:44:41;;;;;;;3.17;2.20;;;24.60;95.30;;;;;;5054999;28;20172;-79
2021/06/29 06:47:07;;;;;;;3.70;2.00;;;24.90;94.70;;;;;;5035903;28;20532;-79
2021/06/29 06:49:32;;;;;;;1.93;1.83;;;25.10;95.70;;;;;;5035290;28;20179;-79
2021/06/29 06:51:58;;;;;;;3.77;1.90;;;25.30;92.00;;;;;;5035739;28;20675;-80
2021/06/29 06:54:23;;;;;;;1.70;1.60;;;25.20;91.80;;;;;;5017285;28;20180;-79
2021/06/29 06:56:49;;;;;;;2.17;1.80;;;25.00;94.10;;;;;;5034926;28;20183;-79
2021/06/29 06:59:14;;;;;;;5.10;2.20;;;25.30;94.10;;;;;;5049070;28;20195;-79
2021/06/29 07:01:41;;;;;;;2.20;1.70;;;25.70;92.00;;;;;;5055536;28;20229;-79
2021/06/29 07:04:06;;;;;;;2.40;1.50;;;26.20;91.30;;;;;;5056090;28;20163;-79
2021/06/29 07:06:32;;;;;;;3.07;1.80;;;26.40;90.80;;;;;;5053037;28;20430;-79
2021/06/29 07:08:57;;;;;;;2.10;1.90;;;26.60;88.20;;;;;;5041038;28;20164;-80
2021/06/29 07:11:23;;;;;;;3.83;1.87;;;26.50;90.20;;;;;;5048822;28;20195;-80
2021/06/29 07:13:48;;;;;;;1.90;1.43;;;26.50;91.60;;;;;;5043685;28;20210;-80
2021/06/29 07:16:14;;;;;;;3.40;1.90;;;26.30;91.20;;;;;;5035717;28;20180;-79
2021/06/29 07:18:40;;;;;;;2.27;1.60;;;25.90;93.00;;;;;;5042487;28;20689;-79
2021/06/29 07:21:05;;;;;;;1.90;1.80;;;25.50;92.30;;;;;;5036583;28;20194;-79
2021/06/29 07:23:31;;;;;;;2.90;2.70;;;25.30;93.50;;;;;;5054796;28;20561;-80
2021/06/29 07:25:56;;;;;;;2.80;2.60;;;25.10;95.50;;;;;;5054366;28;20171;-79
2021/06/29 07:28:22;;;;;;;4.00;2.20;;;24.90;95.70;;;;;;5054346;28;20597;-79
2021/06/29 07:30:47;;;;;;;2.23;2.07;;;24.60;96.30;;;;;;5054593;28;20198;-79
2021/06/29 07:33:13;;;;;;;7.33;2.20;;;24.20;96.30;;;;;;5053731;28;20171;-79
2021/06/29 07:35:39;;;;;;;5.70;2.30;;;24.20;96.30;;;;;;5054023;28;20863;-79
2021/06/29 07:38:06;;;;;;;6.40;2.37;;;24.40;96.30;;;;;;5053719;28;20528;-79
2021/06/29 07:40:32;;;;;;;3.83;1.93;;;24.20;96.30;;;;;;5054330;28;20583;-79
2021/06/29 07:42:58;;;;;;;3.37;2.03;;;24.10;96.10;;;;;;5036443;28;20909;-81
2021/06/29 07:45:26;;;;;;;1.93;1.73;;;24.40;93.80;;;;;;5054611;28;20198;-79
2021/06/29 07:47:52;;;;;;;2.30;2.10;;;24.30;96.00;;;;;;5053871;28;20255;-79
2021/06/29 07:50:17;;;;;;;2.10;1.93;;;24.40;94.50;;;;;;5054807;28;20405;-79
2021/06/29 07:52:43;;;;;;;2.57;2.37;;;24.60;95.10;;;;;;5054177;28;20471;-79
2021/06/29 07:55:09;;;;;;;1.80;1.70;;;24.80;92.10;;;;;;5054627;28;20225;-79
2021/06/29 07:57:35;;;;;;;3.47;2.07;;;25.00;92.10;;;;;;5053709;28;20174;-79
2021/06/29 08:00:00;;;;;;;2.23;1.90;;;24.90;93.30;;;;;;5054205;28;20446;-80
2021/06/29 08:02:26;;;;;;;1.70;1.60;;;24.70;94.00;;;;;;5051894;28;20229;-80
2021/06/29 08:04:51;;;;;;;2.03;1.83;;;24.90;94.00;;;;;;5034410;28;20703;-79
2021/06/29 08:07:17;;;;;;;5.10;1.53;;;25.40;91.90;;;;;;5016380;28;20176;-79
2021/06/29 08:09:43;;;;;;;3.67;1.73;;;26.10;89.00;;;;;;5035047;28;20180;-79
2021/06/29 08:12:09;;;;;;;2.90;1.60;;;27.10;86.90;;;;;;5034850;28;20195;-80
2021/06/29 08:14:36;;;;;;;1.97;1.77;;;27.40;83.50;;;;;;5035244;28;20163;-79
2021/06/29 08:17:03;;;;;;;4.83;1.80;;;26.60;84.20;;;;;;5016845;28;20590;-79
2021/06/29 08:19:28;;;;;;;1.77;1.57;;;27.00;86.80;;;;;;5035004;28;20960;-79
2021/06/29 08:21:54;;;;;;;2.00;1.80;;;27.30;85.20;;;;;;5040630;28;20434;-80
2021/06/29 08:24:20;;;;;;;3.47;1.67;;;27.60;82.70;;;;;;5023356;28;20210;-79
2021/06/29 08:26:45;;;;;;;2.90;1.60;;;27.30;82.90;;;;;;5035086;28;20410;-79
2021/06/29 08:29:11;;;;;;;2.60;1.50;;;27.20;86.50;;;;;;5034191;28;20176;-79
2021/06/29 08:31:37;;;;;;;1.67;1.57;;;27.00;84.60;;;;;;5033459;28;20890;-78
2021/06/29 08:34:03;;;;;;;2.13;1.70;;;27.40;83.80;;;;;;5039115;28;20168;-79
2021/06/29 08:36:30;;;;;;;2.20;2.00;;;26.50;89.10;;;;;;5055158;28;20956;-81
2021/06/29 08:38:56;;;;;;;5.87;1.83;;;26.40;88.50;;;;;;5051885;28;20196;-82
2021/06/29 08:41:22;;;;;;;2.17;2.03;;;25.80;89.50;;;;;;5051606;28;20435;-81
2021/06/29 08:43:48;;;;;;;4.33;2.00;;;26.30;90.80;;;;;;5053203;28;20446;-81
2021/06/29 08:46:13;;;;;;;2.00;1.80;;;26.40;86.60;;;;;;5052559;28;20209;-81
2021/06/29 08:48:39;;;;;;;2.07;1.87;;;26.70;86.30;;;;;;5052523;28;20206;-81
2021/06/29 08:51:06;;;;;;;2.20;1.77;;;26.70;86.00;;;;;;5052385;28;20199;-81
2021/06/29 08:53:32;;;;;;;2.93;1.97;;;26.90;86.60;;;;;;5042553;28;20201;-80
2021/06/29 08:55:58;;;;;;;3.00;1.80;;;27.00;85.30;;;;;;5035116;28;20493;-81
2021/06/29 08:58:24;;;;;;;2.40;1.83;;;27.00;83.90;;;;;;5034433;28;20457;-81
2021/06/29 09:00:52;;;;;;;1.90;1.77;;;27.50;84.70;;;;;;5034796;28;20454;-80
2021/06/29 09:03:17;;;;;;;4.80;2.00;;;27.60;84.30;;;;;;5035452;28;20160;-80
2021/06/29 09:05:48;;;;;;;2.17;1.97;;;27.30;82.90;;;;;;5035154;28;20445;-79
2021/06/29 09:08:17;;;;;;;1.97;1.87;;;26.60;84.40;;;;;;5033643;28;20577;-80
2021/06/29 09:11:03;;;;;;;2.00;1.90;;;26.30;86.50;;;;;;5034962;28;20453;-79
2021/06/29 09:13:30;;;;;;;6.63;1.93;;;25.70;87.10;;;;;;5034820;28;20415;-80
2021/06/29 09:15:57;;;;;;;2.20;2.10;;;25.50;91.50;;;;;;5035337;28;20422;-80
2021/06/29 09:18:25;;;;;;;2.00;1.83;;;25.60;90.70;;;;;;5034100;28;20450;-79
2021/06/29 09:20:55;;;;;;;2.33;2.13;;;25.60;91.40;;;;;;5034241;28;20480;-81
2021/06/29 09:23:24;;;;;;;3.27;2.30;;;25.50;91.30;;;;;;5016301;28;20418;-80
2021/06/29 09:26:01;;;;;;;2.50;1.87;;;25.40;91.00;;;;;;5034116;28;20418;-79
2021/06/29 09:28:30;;;;;;;4.97;2.40;;;25.20;94.50;;;;;;5016425;28;20426;-81
2021/06/29 09:30:58;;;;;;;3.50;2.20;;;24.70;96.30;;;;;;5034746;28;20447;-80
2021/06/29 09:33:31;;;;;;;3.63;2.63;;;24.40;96.30;;;;;;5036502;28;20896;-79
2021/06/29 09:35:59;;;;;;;2.47;2.10;;;24.20;96.30;;;;;;5033664;28;20399;-79
2021/06/29 09:38:28;;;;;;;7.10;2.37;;;24.20;96.30;;;;;;5031718;28;21004;-79
2021/06/29 09:41:01;;;;;;;3.83;2.47;;;24.10;96.30;;;;;;5031867;28;20427;-79
2021/06/29 09:43:29;;;;;;;3.63;2.20;;;24.30;96.30;;;;;;5032218;28;20473;-79
2021/06/29 09:45:57;;;;;;;2.57;2.37;;;24.50;96.30;;;;;;5047300;28;20483;-79
2021/06/29 09:48:35;;;;;;;3.30;2.07;;;24.80;96.30;;;;;;5051628;28;20407;-79
2021/06/29 09:51:07;;;;;;;6.23;2.63;;;25.70;96.30;;;;;;5034529;28;20460;-79
2021/06/29 09:53:37;;;;;;;3.37;2.43;;;26.60;96.30;;;;;;5053130;28;20497;-79
2021/06/29 09:56:04;;;;;;;2.40;2.20;;;26.80;93.70;;;;;;5052984;28;20427;-80
2021/06/29 09:58:32;;;;;;;1.93;1.83;;;27.20;93.20;;;;;;5055198;28;20606;-79
2021/06/29 10:01:00;;;;;;;2.27;2.03;;;27.20;89.20;;;;;;5057647;28;20449;-80
2021/06/29 10:03:32;;;;;;;2.03;1.87;;;26.30;94.10;;;;;;5058768;28;20473;-80
2021/06/29 10:06:00;;;;;;;3.00;2.10;;;26.50;92.90;;;;;;5059576;28;20901;-80
2021/06/29 10:08:27;;;;;;;2.20;2.00;;;26.00;91.40;;;;;;5040242;28;20492;-80
2021/06/29 10:11:22;;;;;;;3.10;2.30;;;25.70;91.30;;;;;;5051491;28;20956;-80
2021/06/29 10:13:59;;;;;;;3.80;2.17;;;25.40;94.30;;;;;;5037053;28;20426;-80
2021/06/29 10:16:29;;;;;;;3.50;2.10;;;26.10;96.00;;;;;;5063663;28;20393;-81
2021/06/29 10:21:24;;;;;;;2.37;2.07;;;26.30;95.00;;;;;;5056162;28;20447;-81
2021/06/29 10:23:54;;;;;;;3.20;2.17;;;26.10;94.10;;;;;;5043936;28;20406;-81
2021/06/29 10:26:21;;;;;;;2.73;2.53;;;25.80;91.60;;;;;;5044884;28;20403;-81
2021/06/29 10:28:48;;;;;;;2.43;2.23;;;26.00;93.40;;;;;;5044594;28;21044;-81
2021/06/29 10:31:26;;;;;;;3.00;2.20;;;26.10;93.30;;;;;;5045204;28;20430;-81
2021/06/29 10:33:54;;;;;;;2.60;2.40;;;26.50;94.30;;;;;;5047635;28;20418;-81
2021/06/29 10:36:22;;;;;;;6.23;2.70;;;26.70;93.80;;;;;;5053552;28;20407;-82
2021/06/29 10:38:48;;;;;;;2.87;2.43;;;27.00;89.60;;;;;;5050288;28;20450;-81
2021/06/29 10:41:15;;;;;;;2.47;2.20;;;26.50;92.60;;;;;;5043291;28;20980;-81
2021/06/29 10:43:41;;;;;;;2.27;2.00;;;26.30;92.30;;;;;;5043038;28;20438;-81
2021/06/29 10:46:14;;;;;;;2.80;2.53;;;26.50;92.90;;;;;;5043275;28;20494;-81
2021/06/29 10:48:41;;;;;;;4.90;2.07;;;26.60;94.90;;;;;;5042487;28;20402;-81
2021/06/29 10:51:11;;;;;;;4.10;2.87;;;26.90;90.20;;;;;;5043047;28;20776;-81
2021/06/29 10:53:39;;;;;;;2.70;2.33;;;26.60;91.60;;;;;;5043325;28;20406;-81
2021/06/29 10:56:16;;;;;;;4.10;2.23;;;26.50;94.30;;;;;;5042840;28;20407;-82
2021/06/29 10:58:47;;;;;;;4.47;2.60;;;26.80;93.00;;;;;;5059822;28;20531;-81
2021/06/29 11:01:20;;;;;;;2.20;2.00;;;26.80;93.40;;;;;;5052292;28;20510;-81
2021/06/29 11:03:46;;;;;;;3.20;2.50;;;26.50;93.20;;;;;;5049291;28;20417;-81
2021/06/29 11:06:12;;;;;;;2.60;2.40;;;26.30;92.10;;;;;;5025058;28;20411;-81
2021/06/29 11:08:48;;;;;;;3.47;2.73;;;26.30;90.70;;;;;;5040944;28;20168;-81
2021/06/29 11:11:13;;;;;;;2.63;2.37;;;26.40;90.30;;;;;;5042148;28;20191;-81
2021/06/29 11:13:44;;;;;;;3.73;1.90;;;26.70;91.50;;;;;;5042270;28;20406;-81
2021/06/29 11:16:10;;;;;;;2.73;2.53;;;27.10;92.60;;;;;;5024428;28;20195;-81
2021/06/29 11:18:39;;;;;;;3.27;2.33;;;27.90;90.60;;;;;;5041659;28;20450;-81
2021/06/29 11:21:08;;;;;;;3.70;2.33;;;28.20;89.30;;;;;;5041626;28;20698;-81
2021/06/29 11:23:34;;;;;;;9.20;2.33;;;27.90;87.80;;;;;;5041604;28;20403;-81
2021/06/29 11:26:12;;;;;;;5.40;2.30;;;27.00;88.30;;;;;;5042063;28;20418;-81
2021/06/29 11:28:43;;;;;;;3.30;2.00;;;27.10;90.70;;;;;;5043133;28;20414;-81
2021/06/29 11:31:30;;;;;;;5.00;1.90;;;27.30;94.10;;;;;;5023352;28;20448;-81
2021/06/29 11:33:58;;;;;;;2.13;2.03;;;27.50;89.50;;;;;;5041166;28;20391;-82
2021/06/29 11:36:23;;;;;;;2.30;2.10;;;27.10;90.20;;;;;;5041397;28;20406;-81
2021/06/29 11:38:52;;;;;;;2.83;2.20;;;26.70;92.20;;;;;;5023612;28;20484;-81
2021/06/29 11:41:37;;;;;;;4.00;2.00;;;26.20;92.90;;;;;;5040853;28;20540;-81
2021/06/29 11:44:09;;;;;;;2.43;2.23;;;26.00;91.70;;;;;;5041659;28;20411;-82
2021/06/29 11:46:59;;;;;;;3.53;1.93;;;25.50;92.70;;;;;;5040842;28;20430;-81
2021/06/29 11:49:33;;;;;;;4.20;2.47;;;24.90;94.60;;;;;;5040674;28;20449;-81
2021/06/29 11:52:14;;;;;;;2.60;2.30;;;24.30;95.50;;;;;;5042855;28;20462;-81
2021/06/29 11:54:48;;;;;;;3.63;2.47;;;23.90;96.30;;;;;;5041020;28;20387;-81
2021/06/29 11:57:20;;;;;;;5.03;2.73;;;23.60;96.30;;;;;;5035373;28;20423;-81
2021/06/29 11:59:47;;;;;;;2.77;2.57;;;23.30;96.30;;;;;;5041414;28;20489;-82
2021/06/29 12:02:17;;;;;;;4.77;3.27;;;23.20;96.30;;;;;;5046809;28;21001;-79
2021/06/29 12:31:08;;;;;;;8.53;3.40;;;20.20;96.30;;;;;;5497871;23;20496;-79
2021/06/29 12:33:39;;;;;;;11.10;4.67;;;20.20;96.30;;;;;;5018183;28;20511;-80
2021/06/29 12:36:14;;;;;;;11.93;4.37;;;20.30;96.30;;;;;;5019250;28;20442;-81
2021/06/29 12:38:57;;;;;;;11.30;3.53;;;20.30;96.30;;;;;;5012863;28;20455;-82
2021/06/29 12:41:25;;;;;;;5.70;4.10;;;20.10;96.30;;;;;;5006512;28;20467;-81
2021/06/29 12:44:03;;;;;;;4.03;3.17;;;20.30;96.30;;;;;;4993174;28;20442;-81
2021/06/29 12:46:32;;;;;;;8.90;3.43;;;20.40;96.30;;;;;;5002874;23;20604;-77
2021/06/29 12:49:06;;;;;;;8.10;3.33;;;20.70;96.30;;;;;;4972974;28;20441;-77
2021/06/29 12:51:38;;;;;;;3.80;3.00;;;20.90;96.30;;;;;;4992601;28;20757;-78
2021/06/29 12:54:06;;;;;;;4.60;3.43;;;20.80;96.30;;;;;;4992747;28;20452;-78
2021/06/29 12:56:39;;;;;;;4.60;3.83;;;20.60;96.30;;;;;;5008615;28;20442;-76
2021/06/29 12:59:07;;;;;;;10.67;4.50;;;20.50;96.30;;;;;;5000493;28;20608;-76
2021/06/29 13:01:34;;;;;;;11.37;4.43;;;20.40;96.30;;;;;;5010846;28;20506;-75
2021/06/29 13:04:07;;;;;;;9.07;5.10;;;20.60;96.30;;;;;;5012261;28;20408;-76
2021/06/29 13:06:33;;;;;;;9.43;4.17;;;20.80;96.30;;;;;;5012211;28;20432;-76
2021/06/29 13:09:05;;;;;;;6.40;4.40;;;20.60;96.30;;;;;;5012045;28;20414;-76
2021/06/29 13:11:30;;;;;;;20.33;6.27;;;20.60;96.30;;;;;;5011698;28;20541;-73
2021/06/29 13:14:02;;;;;;;16.60;4.80;;;20.40;96.30;;;;;;5012237;28;20419;-77
2021/06/29 13:16:29;;;;;;;6.73;3.53;;;20.30;96.30;;;;;;5012046;28;20215;-75
2021/06/29 13:18:56;;;;;;;7.03;4.20;;;20.30;96.30;;;;;;5011791;28;20487;-75
2021/06/29 13:21:30;;;;;;;5.43;4.40;;;20.20;96.30;;;;;;5011552;28;20954;-75
2021/06/29 13:24:04;;;;;;;4.63;4.00;;;20.30;96.30;;;;;;5012146;28;20404;-75
2021/06/29 13:26:31;;;;;;;4.90;3.90;;;20.50;96.30;;;;;;5012018;28;20794;-74
2021/06/29 13:28:59;;;;;;;4.70;4.17;;;20.60;96.30;;;;;;5012045;28;20435;-74
2021/06/29 13:31:26;;;;;;;6.23;4.53;;;20.80;96.30;;;;;;5011901;28;20891;-74
2021/06/29 13:33:52;;;;;;;4.43;3.27;;;21.00;96.30;;;;;;5014389;28;20482;-75
2021/06/29 13:36:25;;;;;;;3.63;3.33;;;21.10;96.30;;;;;;5015313;28;20935;-75
2021/06/29 13:38:58;;;;;;;4.10;3.03;;;21.20;96.30;;;;;;5015605;28;20548;-76
2021/06/29 13:41:38;;;;;;;5.10;3.10;;;21.10;96.30;;;;;;5015258;28;20403;-76
2021/06/29 13:44:14;;;;;;;3.60;3.30;;;21.20;96.30;;;;;;5015274;28;20427;-74
2021/06/29 13:46:40;;;;;;;4.10;3.37;;;21.20;96.30;;;;;;5014647;28;20602;-74
2021/06/29 13:49:21;;;;;;;4.23;3.40;;;21.20;96.30;;;;;;5015265;28;20431;-76
2021/06/29 13:51:47;;;;;;;5.20;3.43;;;21.10;96.30;;;;;;5015127;28;20768;-77
2021/06/29 13:54:22;;;;;;;4.90;3.50;;;20.90;96.30;;;;;;5015513;28;20443;-77
2021/06/29 13:56:49;;;;;;;5.00;3.83;;;21.10;96.30;;;;;;5015353;28;20466;-78
2021/06/29 13:59:38;;;;;;;6.63;4.00;;;21.40;96.30;;;;;;5015531;28;21023;-77
2021/06/29 14:02:07;;;;;;;4.90;3.80;;;22.20;96.30;;;;;;5018098;28;20396;-78
2021/06/29 14:04:53;;;;;;;4.10;3.80;;;22.60;96.30;;;;;;5025136;28;20437;-79
2021/06/29 14:07:19;;;;;;;4.80;3.73;;;22.60;96.30;;;;;;5018651;28;20393;-79
2021/06/29 14:09:45;;;;;;;5.20;4.00;;;22.90;96.30;;;;;;5000201;28;20755;-80
2021/06/29 14:12:25;;;;;;;4.40;4.00;;;22.90;96.30;;;;;;5017695;28;20427;-79
2021/06/29 14:15:02;;;;;;;5.07;3.80;;;23.00;96.30;;;;;;5017150;28;20903;-80
2021/06/29 14:17:31;;;;;;;6.37;4.00;;;22.80;96.30;;;;;;5016429;28;20384;-80
2021/06/29 14:19:57;;;;;;;6.10;3.83;;;22.50;96.30;;;;;;5016198;28;20448;-80
2021/06/29 14:22:22;;;;;;;4.70;4.40;;;22.70;96.30;;;;;;5016761;28;20504;-80
2021/06/29 14:24:47;;;;;;;4.93;4.40;;;23.00;96.30;;;;;;5016344;28;20181;-80
2021/06/29 14:27:13;;;;;;;6.57;4.70;;;23.10;96.30;;;;;;4998361;28;20275;-80
2021/06/29 14:29:38;;;;;;;4.53;4.13;;;23.00;96.30;;;;;;5016140;28;20184;-81
2021/06/29 14:32:06;;;;;;;6.10;5.43;;;22.80;96.30;;;;;;4999328;28;20177;-80
2021/06/29 14:34:31;;;;;;;4.63;4.33;;;22.60;96.30;;;;;;5016925;28;20165;-79
2021/06/29 14:36:57;;;;;;;5.47;4.60;;;22.50;96.30;;;;;;5016267;28;20438;-80
2021/06/29 14:39:22;;;;;;;5.07;4.67;;;22.30;96.30;;;;;;5015878;28;20197;-80
2021/06/29 14:41:48;;;;;;;5.33;4.83;;;22.00;96.30;;;;;;5015056;28;20171;-79
2021/06/29 14:44:14;;;;;;;8.60;4.87;;;21.80;96.30;;;;;;5015154;28;20680;-80
2021/06/29 14:46:39;;;;;;;5.30;4.90;;;21.40;96.30;;;;;;5015487;28;20204;-80
2021/06/29 14:49:05;;;;;;;5.17;4.70;;;21.20;96.30;;;;;;5014956;28;20244;-79
2021/06/29 14:51:30;;;;;;;5.67;5.17;;;21.10;96.30;;;;;;5013798;28;20664;-79
2021/06/29 14:53:56;;;;;;;5.57;5.07;;;21.00;96.30;;;;;;5014799;28;20653;-79
2021/06/29 14:56:22;;;;;;;6.00;5.40;;;21.00;96.30;;;;;;4996752;28;20226;-78
2021/06/29 14:58:48;;;;;;;5.47;4.97;;;20.90;96.30;;;;;;5014276;28;20616;-78
2021/06/29 15:01:16;;;;;;;6.73;5.40;;;20.70;96.30;;;;;;5014459;28;20502;-78
2021/06/29 15:03:42;;;;;;;7.53;5.23;;;20.50;96.30;;;;;;4996273;28;20219;-78
2021/06/29 15:06:07;;;;;;;5.57;5.10;;;20.40;96.30;;;;;;5012545;28;20889;-78
2021/06/29 15:08:33;;;;;;;6.53;5.80;;;20.30;96.30;;;;;;5014590;28;20184;-78
2021/06/29 15:10:59;;;;;;;7.77;5.20;;;20.20;96.30;;;;;;5013745;28;20173;-79
2021/06/29 15:13:25;;;;;;;8.77;6.23;;;20.10;96.30;;;;;;4996760;28;20279;-76
2021/06/29 15:15:51;;;;;;;15.70;6.40;;;20.00;96.30;;;;;;5013983;28;20471;-73
2021/06/29 15:18:17;;;;;;;8.50;5.93;;;19.90;96.30;;;;;;5013489;28;20446;-74
2021/06/29 15:20:43;;;;;;;6.83;6.17;;;19.60;96.30;;;;;;5013337;28;20173;-74
2021/06/29 15:23:09;;;;;;;9.60;6.07;;;19.50;96.30;;;;;;5011971;28;20558;-74
2021/06/29 15:25:35;;;;;;;7.60;5.57;;;19.40;96.30;;;;;;4993814;28;20438;-76
2021/06/29 15:28:01;;;;;;;6.40;5.80;;;19.60;96.30;;;;;;4994056;28;20409;-74
2021/06/29 15:30:27;;;;;;;8.40;5.67;;;19.80;96.30;;;;;;4993672;28;20409;-74
2021/06/29 15:32:53;;;;;;;6.20;5.70;;;20.00;96.30;;;;;;4993848;28;20178;-75
2021/06/29 15:35:20;;;;;;;6.33;5.50;;;20.50;96.30;;;;;;4994100;28;20421;-75
2021/06/29 15:37:46;;;;;;;5.33;4.83;;;20.80;96.30;;;;;;4992670;28;20181;-76
2021/06/29 15:40:21;;;;;;;5.87;5.30;;;20.50;96.30;;;;;;5012803;28;20459;-77
2021/06/29 15:42:47;;;;;;;9.60;5.50;;;20.50;96.30;;;;;;5013643;28;20391;-76
2021/06/29 15:45:13;;;;;;;7.50;6.10;;;20.60;96.30;;;;;;5012904;28;20455;-76
2021/06/29 15:47:41;;;;;;;6.53;5.93;;;20.70;96.30;;;;;;5013555;28;20891;-77
2021/06/29 15:50:08;;;;;;;7.10;6.40;;;20.90;96.30;;;;;;5013106;28;20423;-78
2021/06/29 15:52:34;;;;;;;7.63;6.17;;;21.40;96.30;;;;;;5013511;28;20439;-78
2021/06/29 15:55:00;;;;;;;6.70;6.10;;;22.00;96.30;;;;;;5011485;28;20970;-78
2021/06/29 15:57:25;;;;;;;8.70;6.30;;;22.30;96.30;;;;;;5009487;28;20684;-78
2021/06/29 15:59:53;;;;;;;7.37;6.30;;;22.70;96.30;;;;;;5010908;28;20276;-78
2021/06/29 16:02:18;;;;;;;8.57;6.77;;;22.60;96.30;;;;;;5011555;28;20161;-78
2021/06/29 16:04:44;;;;;;;6.03;5.53;;;22.60;96.30;;;;;;4993848;28;20427;-78
2021/06/29 16:07:09;;;;;;;6.17;4.57;;;22.60;96.30;;;;;;5011649;28;20204;-78
2021/06/29 16:09:35;;;;;;;6.43;5.30;;;22.40;96.30;;;;;;5011200;28;20192;-78
2021/06/29 16:12:00;;;;;;;6.70;5.57;;;22.20;96.30;;;;;;4994158;28;20524;-78
2021/06/29 16:14:26;;;;;;;5.33;4.93;;;22.10;96.30;;;;;;5011633;28;20184;-79
2021/06/29 16:16:51;;;;;;;6.37;5.33;;;21.80;96.30;;;;;;5011029;28;20323;-78
2021/06/29 16:19:18;;;;;;;5.50;5.00;;;21.70;96.30;;;;;;4993768;28;20193;-78
2021/06/29 16:21:46;;;;;;;5.23;4.40;;;21.70;96.30;;;;;;5011818;28;20204;-79
2021/06/29 16:24:12;;;;;;;5.20;4.70;;;21.60;96.30;;;;;;5011628;28;20408;-79
2021/06/29 16:26:37;;;;;;;5.60;5.17;;;21.50;96.30;;;;;;5012426;28;20454;-79
2021/06/29 16:29:06;;;;;;;5.17;4.77;;;21.40;96.30;;;;;;5015026;28;20215;-79
2021/06/29 16:31:32;;;;;;;6.20;5.70;;;21.30;96.30;;;;;;5016265;28;20184;-79
2021/06/29 16:33:57;;;;;;;6.33;5.70;;;21.20;96.30;;;;;;5015940;28;20412;-79
2021/06/29 16:36:23;;;;;;;5.53;5.03;;;21.30;96.30;;;;;;5015415;28;20927;-79
2021/06/29 16:38:49;;;;;;;5.63;5.13;;;21.30;96.30;;;;;;5016397;28;20227;-79
2021/06/29 16:41:16;;;;;;;4.83;4.50;;;21.20;96.30;;;;;;5015301;28;20180;-79
2021/06/29 16:43:44;;;;;;;5.30;4.90;;;21.20;96.30;;;;;;5015635;28;20412;-79
2021/06/29 16:46:10;;;;;;;6.43;4.87;;;21.30;96.30;;;;;;4996838;28;20533;-79
2021/06/29 16:48:38;;;;;;;4.70;4.30;;;21.50;96.30;;;;;;5012795;28;20498;-79
2021/06/29 16:51:06;;;;;;;4.70;4.30;;;21.80;96.30;;;;;;5013560;28;20184;-79
2021/06/29 16:53:34;;;;;;;4.53;4.13;;;21.80;96.30;;;;;;4995303;28;20566;-79
2021/06/29 16:56:03;;;;;;;4.23;3.90;;;21.90;96.30;;;;;;4996754;28;20444;-79
2021/06/29 16:58:32;;;;;;;5.50;3.93;;;21.60;96.30;;;;;;5013831;28;20820;-79
2021/06/29 17:00:58;;;;;;;4.10;3.80;;;21.80;96.30;;;;;;5013434;28;20416;-79
2021/06/29 17:03:24;;;;;;;4.63;4.03;;;21.70;96.30;;;;;;5014326;28;20434;-79
2021/06/29 17:05:49;;;;;;;4.43;3.80;;;21.70;96.30;;;;;;5013288;28;20919;-79
2021/06/29 17:08:15;;;;;;;5.00;4.50;;;21.70;96.30;;;;;;5013194;28;20177;-79
2021/06/29 17:10:40;;;;;;;4.60;4.10;;;21.70;96.30;;;;;;5014933;28;20172;-79
2021/06/29 17:13:06;;;;;;;3.97;3.67;;;21.70;96.30;;;;;;5014122;28;20817;-79
2021/06/29 17:15:32;;;;;;;4.97;4.53;;;21.70;96.30;;;;;;4996246;28;20204;-79
2021/06/29 17:17:58;;;;;;;6.20;4.23;;;21.70;96.30;;;;;;5010420;28;20165;-79